createdAt,value
2019-02-17T00:00:32.838Z,22.53
2019-02-17T00:05:34.328Z,20.40
2019-02-17T00:10:35.708Z,24.57
2019-02-17T00:15:37.184Z,22.03
2019-02-17T00:20:38.720Z,21.73
2019-02-17T00:25:40.064Z,19.13
2019-02-17T00:30:41.407Z,19.60
2019-02-17T00:35:42.790Z,21.57
2019-02-17T00:40:44.193Z,23.60
2019-02-17T00:45:45.627Z,21.73
2019-02-17T00:50:47.016Z,23.17
2019-02-17T00:55:48.358Z,21.17
2019-02-17T01:00:50.776Z,24.37
2019-02-17T01:05:52.215Z,23.40
2019-02-17T01:10:53.639Z,26.47
2019-02-17T01:15:55.040Z,24.70
2019-02-17T01:20:56.470Z,24.47
2019-02-17T01:25:57.877Z,28.90
2019-02-17T01:30:59.268Z,24.67
2019-02-17T01:36:00.599Z,24.00
2019-02-17T01:41:02.175Z,20.77
2019-02-17T01:46:03.565Z,21.67
2019-02-17T01:51:04.999Z,20.27
2019-02-17T01:56:06.404Z,20.40
2019-02-17T02:01:07.726Z,20.57
2019-02-17T02:06:09.198Z,18.60
2019-02-17T02:11:10.586Z,18.23
2019-02-17T02:16:11.997Z,19.03
2019-02-17T02:21:13.412Z,19.70
2019-02-17T02:26:14.774Z,20.60
2019-02-17T02:31:16.105Z,19.47
2019-02-17T02:36:17.507Z,18.37
2019-02-17T02:41:18.843Z,18.83
2019-02-17T02:46:20.239Z,20.50
2019-02-17T02:51:21.666Z,20.77
2019-02-17T02:56:24.098Z,17.07
2019-02-17T03:01:25.534Z,19.10
2019-02-17T03:06:37.629Z,18.03
2019-02-17T03:11:39.013Z,19.30
2019-02-17T03:16:40.410Z,21.50
2019-02-17T03:21:41.840Z,18.90
2019-02-17T03:26:43.330Z,21.13
2019-02-17T03:31:44.655Z,17.80
2019-02-17T03:36:46.063Z,16.90
2019-02-17T03:41:47.398Z,21.13
2019-02-17T03:46:48.803Z,19.40
2019-02-17T03:51:50.322Z,18.03
2019-02-17T03:56:51.727Z,20.40
2019-02-17T04:01:53.056Z,18.17
2019-02-17T04:06:55.514Z,19.57
2019-02-17T04:11:56.922Z,18.33
2019-02-17T04:16:58.315Z,19.03
2019-02-17T04:21:59.645Z,22.33
2019-02-17T04:27:01.036Z,19.73
2019-02-17T04:32:02.391Z,18.20
2019-02-17T04:37:03.730Z,18.57
2019-02-17T04:42:05.122Z,18.30
2019-02-17T04:47:06.461Z,18.50
2019-02-17T04:52:07.859Z,18.07
2019-02-17T04:57:09.186Z,16.53
2019-02-17T05:02:10.783Z,18.03
2019-02-17T05:07:12.146Z,18.57
2019-02-17T05:12:13.523Z,19.77
2019-02-17T05:17:15.086Z,18.73
2019-02-17T05:22:16.402Z,19.20
2019-02-17T05:27:17.893Z,19.80
2019-02-17T05:32:19.246Z,17.47
2019-02-17T05:37:20.598Z,16.73
2019-02-17T05:42:21.972Z,16.53
2019-02-17T05:47:23.372Z,19.60
2019-02-17T05:52:24.824Z,16.90
2019-02-17T05:57:26.309Z,18.30
2019-02-17T06:02:27.669Z,19.13
2019-02-17T06:07:29.041Z,18.17
2019-02-17T06:12:30.464Z,17.10
2019-02-17T06:17:32.890Z,17.47
2019-02-17T06:22:34.322Z,16.50
2019-02-17T06:27:35.719Z,20.87
2019-02-17T06:32:37.152Z,17.50
2019-02-17T06:37:38.535Z,18.13
2019-02-17T06:42:39.907Z,18.80
2019-02-17T06:47:41.287Z,17.37
2019-02-17T06:52:42.717Z,18.73
2019-02-17T06:57:44.115Z,20.47
2019-02-17T07:02:45.464Z,20.83
2019-02-17T07:07:47.039Z,20.30
2019-02-17T07:12:48.581Z,16.03
2019-02-17T07:17:49.974Z,20.23
2019-02-17T07:22:51.407Z,19.80
2019-02-17T07:27:53.826Z,22.17
2019-02-17T07:32:55.179Z,16.37
2019-02-17T07:37:56.670Z,20.60
2019-02-17T07:42:59.121Z,22.90
2019-02-17T07:48:00.514Z,21.17
2019-02-17T07:53:01.878Z,21.93
2019-02-17T07:58:04.349Z,19.53
2019-02-17T08:03:06.866Z,23.27
2019-02-17T08:08:08.294Z,21.37
2019-02-17T08:13:09.694Z,22.87
2019-02-17T08:18:11.127Z,22.73
2019-02-17T08:23:13.129Z,22.37
2019-02-17T08:28:14.487Z,21.67
2019-02-17T08:33:15.834Z,19.67
2019-02-17T08:38:17.225Z,22.47
2019-02-17T08:43:18.554Z,22.00
2019-02-17T08:48:19.963Z,24.03
2019-02-17T08:53:21.429Z,21.53
2019-02-17T08:58:22.927Z,23.03
2019-02-17T09:03:24.349Z,24.13
2019-02-17T09:08:25.700Z,21.73
2019-02-17T09:13:27.139Z,22.13
2019-02-17T09:18:28.545Z,20.40
2019-02-17T09:23:30.265Z,23.07
2019-02-17T09:28:31.878Z,22.37
2019-02-17T09:33:33.323Z,22.23
2019-02-17T09:38:34.722Z,23.93
2019-02-17T09:43:36.158Z,21.13
2019-02-17T09:48:37.551Z,23.53
2019-02-17T09:53:38.898Z,21.07
2019-02-17T09:58:40.333Z,21.07
2019-02-17T10:03:41.751Z,24.40
2019-02-17T10:08:43.229Z,22.17
2019-02-17T10:13:44.677Z,20.30
2019-02-17T10:18:46.141Z,22.80
2019-02-17T10:23:47.476Z,19.30
2019-02-17T10:28:48.885Z,19.53
2019-02-17T10:33:50.540Z,21.83
2019-02-17T10:38:51.915Z,19.90
2019-02-17T10:43:53.958Z,19.83
2019-02-17T10:48:55.466Z,19.63
2019-02-17T10:53:56.909Z,22.60
2019-02-17T10:58:58.286Z,22.70
2019-02-17T11:04:04.893Z,20.80
2019-02-17T11:09:09.579Z,17.17
2019-02-17T11:14:11.051Z,18.00
2019-02-17T11:19:12.515Z,15.80
2019-02-17T11:24:13.888Z,17.33
2019-02-17T11:29:15.462Z,17.73
2019-02-17T11:34:17.449Z,15.07
2019-02-17T11:39:19.125Z,16.57
2019-02-17T11:44:20.576Z,16.87
2019-02-17T11:49:21.982Z,13.00
2019-02-17T11:54:23.417Z,14.77
2019-02-17T11:59:24.846Z,11.17
2019-02-17T12:04:26.230Z,15.67
2019-02-17T12:09:27.631Z,14.00
2019-02-17T12:14:31.092Z,13.47
2019-02-17T12:19:32.471Z,14.50
2019-02-17T12:24:35.746Z,10.20
2019-02-17T12:29:39.062Z,13.80
2019-02-17T12:34:40.488Z,12.87
2019-02-17T12:39:41.915Z,14.03
2019-02-17T12:44:44.375Z,8.63
2019-02-17T12:49:45.807Z,9.83
2019-02-17T12:54:47.272Z,13.37
2019-02-17T12:59:48.605Z,12.37
2019-02-17T13:04:49.990Z,12.27
2019-02-17T13:09:51.334Z,15.33
2019-02-17T13:14:52.722Z,14.97
2019-02-17T13:19:54.067Z,12.73
2019-02-17T13:24:55.466Z,14.10
2019-02-17T13:29:56.888Z,12.07
2019-02-17T13:34:58.289Z,11.43
2019-02-17T13:40:00.675Z,10.73
2019-02-17T13:45:03.780Z,11.27
2019-02-17T13:50:12.342Z,10.23
2019-02-17T13:55:13.749Z,9.50
2019-02-17T14:00:17.524Z,8.83
2019-02-17T14:05:19.044Z,8.20
2019-02-17T14:10:20.411Z,7.37
2019-02-17T14:15:21.798Z,9.57
2019-02-17T14:20:23.125Z,7.10
2019-02-17T14:25:25.549Z,9.83
2019-02-17T14:30:30.310Z,10.17
2019-02-17T14:35:32.368Z,7.27
2019-02-17T14:40:33.728Z,7.10
2019-02-17T14:45:35.130Z,7.00
2019-02-17T14:50:36.545Z,6.50
2019-02-17T14:55:37.930Z,5.57
2019-02-17T15:00:40.319Z,6.80
2019-02-17T15:05:41.755Z,5.20
2019-02-17T15:10:44.174Z,6.13
2019-02-17T15:15:45.607Z,5.43
2019-02-17T15:20:46.997Z,5.73
2019-02-17T15:25:49.359Z,5.60
2019-02-17T15:30:50.752Z,4.40
2019-02-17T15:35:53.247Z,5.17
2019-02-17T15:40:54.579Z,5.83
2019-02-17T15:45:55.959Z,4.80
2019-02-17T15:51:06.216Z,4.63
2019-02-17T15:56:02.727Z,5.53
2019-02-17T16:01:05.286Z,4.30
2019-02-17T16:06:06.631Z,5.87
2019-02-17T16:11:08.115Z,4.40
2019-02-17T16:16:10.506Z,5.43
2019-02-17T16:21:11.937Z,4.93
2019-02-17T16:26:13.955Z,5.83
2019-02-17T16:31:15.434Z,6.37
2019-02-17T16:36:16.892Z,7.37
2019-02-17T16:41:18.338Z,7.73
2019-02-17T16:46:20.737Z,6.63
2019-02-17T16:51:22.173Z,7.60
2019-02-17T16:56:24.600Z,10.30
2019-02-17T17:01:26.027Z,15.43
2019-02-17T17:06:27.499Z,8.40
2019-02-17T17:11:28.858Z,5.23
2019-02-17T17:16:30.256Z,6.90
2019-02-17T17:21:31.582Z,6.50
2019-02-17T17:26:34.002Z,6.17
2019-02-17T17:31:36.513Z,5.97
2019-02-17T17:36:37.938Z,5.90
2019-02-17T17:41:39.374Z,5.17
2019-02-17T17:46:40.769Z,6.80
2019-02-17T17:51:42.161Z,5.63
2019-02-17T17:56:44.538Z,7.03
2019-02-17T18:01:45.879Z,6.27
2019-02-17T18:06:47.273Z,7.50
2019-02-17T18:11:48.706Z,6.30
2019-02-17T18:16:50.155Z,7.87
2019-02-17T18:21:51.566Z,6.47
2019-02-17T18:26:52.970Z,6.73
2019-02-17T18:31:54.378Z,6.60
2019-02-17T18:36:55.791Z,5.33
2019-02-17T18:41:58.150Z,5.77
2019-02-17T18:46:59.479Z,6.70
2019-02-17T18:52:00.877Z,6.37
2019-02-17T18:57:08.176Z,7.07
2019-02-17T19:02:05.572Z,8.63
2019-02-17T19:07:06.999Z,7.07
2019-02-17T19:12:08.380Z,6.97
2019-02-17T19:17:09.715Z,7.57
2019-02-17T19:22:11.068Z,5.77
2019-02-17T19:27:12.446Z,5.73
2019-02-17T19:32:14.182Z,5.87
2019-02-17T19:37:15.592Z,5.70
2019-02-17T19:42:17.004Z,8.70
2019-02-17T19:47:18.335Z,6.00
2019-02-17T19:52:19.718Z,5.20
2019-02-17T19:57:21.154Z,8.40
2019-02-17T20:02:24.529Z,6.07
2019-02-17T20:07:25.914Z,6.47
2019-02-17T20:12:28.241Z,6.63
2019-02-17T20:17:30.306Z,8.97
2019-02-17T20:22:31.880Z,6.23
2019-02-17T20:27:33.219Z,5.90
2019-02-17T20:32:34.594Z,6.13
2019-02-17T20:37:36.077Z,6.50
2019-02-17T20:42:37.520Z,5.80
2019-02-17T20:47:39.012Z,6.07
2019-02-17T20:52:40.343Z,5.80
2019-02-17T20:57:41.869Z,6.53
2019-02-17T21:02:43.278Z,6.43
2019-02-17T21:07:44.670Z,5.83
2019-02-17T21:12:46.037Z,5.63
2019-02-17T21:17:47.627Z,5.73
2019-02-17T21:22:49.034Z,5.70
2019-02-17T21:27:50.423Z,7.80
2019-02-17T21:32:51.766Z,10.37
2019-02-17T21:37:53.161Z,11.83
2019-02-17T21:42:54.486Z,10.57
2019-02-17T21:47:55.880Z,6.83
2019-02-17T21:52:57.227Z,6.93
2019-02-17T21:57:58.614Z,7.43
2019-02-17T22:03:00.065Z,12.17
2019-02-17T22:08:01.463Z,8.60
2019-02-17T22:13:02.882Z,8.67
2019-02-17T22:18:04.272Z,8.37
2019-02-17T22:23:05.635Z,7.93
2019-02-17T22:28:06.964Z,10.10
2019-02-17T22:33:08.364Z,14.20
2019-02-17T22:38:09.710Z,22.07
2019-02-17T22:43:12.122Z,18.43
2019-02-17T22:48:13.497Z,12.70
2019-02-17T22:53:15.928Z,9.27
2019-02-17T22:58:17.329Z,8.33
2019-02-17T23:03:18.795Z,10.57
2019-02-17T23:08:20.159Z,10.90
2019-02-17T23:13:21.504Z,11.73
2019-02-17T23:18:22.893Z,9.83
2019-02-17T23:23:24.215Z,8.40
2019-02-17T23:28:25.617Z,8.87
2019-02-17T23:33:26.977Z,7.60
2019-02-17T23:38:28.459Z,7.33
2019-02-17T23:43:29.884Z,7.57
2019-02-17T23:48:31.287Z,8.07
2019-02-17T23:53:32.747Z,8.87
2019-02-17T23:58:34.114Z,6.80
